»·PEaware :: N153MS KOXR-KLAS

N153MS :: KOXR-KLAS

FLIGHT INFORMATION

Flight Status: Arrived
Operator: Privately registered:
United States
More flights under this callsign
Pilot: Shane N. (25833)
Aircraft: MOONEY M-20K/M ENCORE BRAVO
(M20T)
More flights by this aircraft type
Origin: KOXR Oxnard
United States
Destination: KLAS McCarran Intl
United States
More flights between these airports :: More routes between these airports
Route: +FIM V386 PMD DAG CRESO4
File this flight plan on PilotEdge
Remarks:
Altitude:
(Current/Filed)
25,000ft
Speed:
(Current/Filed)
200kts
Departed: 22-Mar-20 08:25 PM
Arrived: 22-Mar-20 09:48 PM
Distance/Time
Traveled:
229nm/1:22
Distance/Time
To Go:
Arrived

Flight Plot

Page will automatically refresh every two minutes.

Flight plan parsing failed; only flown route is shown


Map Options




Map Legend


Flown Route
Filed Route
Departure Airport
Arrival Airport
Navaid (VOR, NDB)
Fix

Horizontal Profiles

Position Reports

Time Latitude Longitude Heading Altitude Ground
Speed
22-Mar-20 20:06 34.198999 -119.197763 269 44ft 0kts
22-Mar-20 20:07 34.198999 -119.197763 269 44ft 0kts
22-Mar-20 20:08 34.198999 -119.197763 269 44ft 0kts
22-Mar-20 20:09 34.198999 -119.197763 269 44ft 0kts
22-Mar-20 20:10 34.198999 -119.197763 269 44ft 0kts
22-Mar-20 20:11 34.198999 -119.197763 269 44ft 0kts
22-Mar-20 20:12 34.198999 -119.197763 269 44ft 0kts
22-Mar-20 20:13 34.198999 -119.197763 269 44ft 0kts
22-Mar-20 20:14 34.198999 -119.197763 269 44ft 0kts
22-Mar-20 20:15 34.198999 -119.197775 270 44ft 1kts
22-Mar-20 20:16 34.199766 -119.201301 269 42ft 16kts
22-Mar-20 20:17 34.199760 -119.207394 270 37ft 18kts
22-Mar-20 20:18 34.199861 -119.213536 271 33ft 17kts
22-Mar-20 20:19 34.200123 -119.216900 347 31ft 0kts
22-Mar-20 20:20 34.200123 -119.216900 347 31ft 0kts
22-Mar-20 20:21 34.200123 -119.216900 347 31ft 0kts
22-Mar-20 20:22 34.200123 -119.216900 347 31ft 0kts
22-Mar-20 20:23 34.200858 -119.216891 28 31ft 14kts
22-Mar-20 20:24 34.199297 -119.193660 94 807ft 97kts
22-Mar-20 20:25 34.199320 -119.162033 81 2453ft 96kts
22-Mar-20 20:26 34.204592 -119.130353 59 3975ft 111kts
22-Mar-20 20:27 34.233023 -119.118625 310 5423ft 147kts
22-Mar-20 20:28 34.236319 -119.166038 260 6977ft 143kts
22-Mar-20 20:29 34.241953 -119.212877 311 8483ft 155kts
22-Mar-20 20:30 34.266828 -119.197343 105 9544ft 118kts
22-Mar-20 20:31 34.273135 -119.155397 78 10976ft 141kts
22-Mar-20 20:32 34.288068 -119.110421 77 12478ft 145kts
22-Mar-20 20:33 34.303508 -119.064058 79 13918ft 153kts
22-Mar-20 20:34 34.319829 -119.014993 80 15338ft 161kts
22-Mar-20 20:35 34.336917 -118.963568 81 16737ft 169kts
22-Mar-20 20:36 34.354841 -118.909555 81 18114ft 177kts
22-Mar-20 20:37 34.373662 -118.852716 82 19455ft 187kts
22-Mar-20 20:38 34.393436 -118.792922 82 20785ft 196kts
22-Mar-20 20:39 34.414191 -118.730023 82 22084ft 207kts
22-Mar-20 20:40 34.436057 -118.663618 82 23356ft 218kts
22-Mar-20 20:41 34.459118 -118.593452 81 24617ft 229kts
22-Mar-20 20:42 34.484155 -118.516507 79 25144ft 274kts
22-Mar-20 20:43 34.514345 -118.424232 77 25133ft 307kts
22-Mar-20 20:44 34.546021 -118.327150 78 25105ft 318kts
22-Mar-20 20:45 34.578402 -118.227541 78 25098ft 319kts
22-Mar-20 20:46 34.610829 -118.127435 78 25100ft 319kts
22-Mar-20 20:47 34.639943 -118.026239 85 25100ft 314kts
22-Mar-20 20:48 34.663410 -117.924057 86 25094ft 314kts
22-Mar-20 20:49 34.686841 -117.821296 86 25085ft 315kts
22-Mar-20 20:50 34.710093 -117.718900 86 25086ft 315kts
22-Mar-20 20:51 34.733372 -117.615926 86 25090ft 315kts
22-Mar-20 20:52 34.756493 -117.513219 86 25093ft 315kts
22-Mar-20 20:53 34.779681 -117.409761 86 25095ft 316kts
22-Mar-20 20:54 34.802505 -117.307520 86 25080ft 315kts
22-Mar-20 20:55 34.825349 -117.204726 86 25071ft 314kts
22-Mar-20 20:56 34.847588 -117.104016 86 24639ft 321kts
22-Mar-20 20:57 34.870399 -117.000606 84 24053ft 306kts
22-Mar-20 20:58 34.892394 -116.900350 82 24052ft 307kts
22-Mar-20 20:59 34.914986 -116.796801 82 23186ft 316kts
22-Mar-20 21:00 34.937091 -116.695348 83 23054ft 304kts
22-Mar-20 21:01 34.958494 -116.596346 84 23056ft 300kts
22-Mar-20 21:02 34.996158 -116.502470 68 23061ft 308kts
22-Mar-20 21:03 35.036926 -116.410602 69 23068ft 307kts
22-Mar-20 21:05 35.077606 -116.317314 72 21750ft 327kts
22-Mar-20 21:06 35.108416 -116.231188 80 21672ft 278kts
22-Mar-20 21:07 35.134003 -116.136839 83 20382ft 303kts
22-Mar-20 21:08 35.173067 -116.050845 65 18889ft 270kts
22-Mar-20 21:09 35.211420 -115.977085 64 17642ft 254kts
22-Mar-20 21:10 35.248802 -115.905678 64 16721ft 243kts
22-Mar-20 21:11 35.283563 -115.839165 64 16286ft 231kts
22-Mar-20 21:12 35.321093 -115.773573 53 15176ft 248kts
22-Mar-20 21:13 35.365441 -115.713937 51 13669ft 225kts
22-Mar-20 21:14 35.405838 -115.660027 50 12421ft 207kts
22-Mar-20 21:15 35.444891 -115.607858 49 11317ft 211kts
22-Mar-20 21:16 35.484821 -115.554405 49 10214ft 212kts
22-Mar-20 21:17 35.521829 -115.504893 50 10016ft 180kts
22-Mar-20 21:18 35.554641 -115.460946 49 10020ft 180kts
22-Mar-20 21:19 35.591795 -115.411028 49 10018ft 208kts
22-Mar-20 21:20 35.631505 -115.357578 49 10018ft 213kts
22-Mar-20 21:21 35.671253 -115.304047 50 10019ft 214kts
22-Mar-20 21:22 35.711338 -115.249961 50 9343ft 195kts
22-Mar-20 21:23 35.745063 -115.204301 50 7844ft 184kts
22-Mar-20 21:23 35.775503 -115.168972 30 7020ft 168kts
22-Mar-20 21:25 35.827247 -115.136799 28 7019ft 186kts
22-Mar-20 21:26 35.874310 -115.107625 28 7019ft 190kts
22-Mar-20 21:26 35.913933 -115.083045 28 7019ft 197kts
22-Mar-20 21:28 35.972945 -115.046367 28 7019ft 206kts
22-Mar-20 21:29 36.024287 -115.014174 28 7018ft 207kts
22-Mar-20 21:29 36.067169 -114.987104 28 7015ft 207kts
22-Mar-20 21:30 36.117963 -114.954808 28 7011ft 207kts
22-Mar-20 21:31 36.169080 -114.922139 28 7010ft 207kts
22-Mar-20 21:32 36.220172 -114.889459 28 7010ft 206kts
22-Mar-20 21:33 36.271328 -114.856716 28 7010ft 206kts
22-Mar-20 21:34 36.322356 -114.823993 28 7009ft 206kts
22-Mar-20 21:35 36.364486 -114.781899 93 6986ft 201kts
22-Mar-20 21:36 36.330000 -114.786883 274 6985ft 206kts
22-Mar-20 21:37 36.339968 -114.847943 244 7007ft 171kts
22-Mar-20 21:38 36.318277 -114.899993 240 6180ft 172kts
22-Mar-20 21:39 36.294733 -114.954211 239 5786ft 186kts
22-Mar-20 21:40 36.267802 -115.008943 220 5779ft 181kts
22-Mar-20 21:41 36.227291 -115.044161 209 5223ft 172kts
22-Mar-20 21:42 36.189322 -115.077666 214 4365ft 160kts
22-Mar-20 21:43 36.164072 -115.107783 223 3698ft 109kts
22-Mar-20 21:44 36.144047 -115.129319 212 3201ft 112kts
22-Mar-20 21:45 36.123673 -115.142873 199 2733ft 93kts
22-Mar-20 21:46 36.100974 -115.155674 201 2171ft 85kts
22-Mar-20 21:47 36.094172 -115.160800 293 2105ft 2kts

Navigation Log

Ident Type
Flight plan parsing failed, navigation log unavailable